Fort Walton Beach, FL

1:24 PM CST on February 10, 2016 (GMT -0600)
Forest Heights | | Change Station
CLOSE
Current Station
Personal Weather Station
Location: Fort Walton Beach, FL
Elevation: 72 ft
Nearby Weather Stations

Elev 72 ft 30.46 °N, 86.63 °W | Updated 21 seconds ago

Partly Cloudy
Partly Cloudy
53.4 °F
Feels Like 53.4 °F
N
3.7
Wind Variable Wind from NNW

Today
High -- | Low -- °F
--% Chance of Precip.
Yesterday
High -- | Low -- °F
Precip. -- in
Pressure 30.25 in
Visibility 10.0 miles
Clouds Clear
Dew Point 18 °F
Humidity 24%
Rainfall 0.00 in
Snow Depth Not available.
6:31 AM 5:30 PM
Waxing Crescent, 7% visible
METAR KHRT 101858Z AUTO VRB06KT 10SM CLR 10/M12 A3024 RMK AO2 SLP242 T00971119 $
Pressure 30.25 in
Visibility 10.0 miles
Clouds Clear
Dew Point 18 °F
Humidity 24%
Rainfall 0.00 in
Snow Depth Not available.
6:31 AM 5:30 PM
Waxing Crescent, 7% visible
METAR KHRT 101858Z AUTO VRB06KT 10SM CLR 10/M12 A3024 RMK AO2 SLP242 T00971119 $

10-Day Weather Forecast

Almanac

Astronomy

Feb. 10, 2016 Rise Set
Actual Time
Civil Twilight
Nautical Twilight
Astronomical Twilight
Moon
Length of Visible Light
Length of Day
Tomorrow will be .
, % of the Moon is Illuminated

Today's Extremes

State Highs State Lows

Community

WunderPhotos

Upload Photos

1,891,922 photos uploaded!

WunderBlog® & News

Nearby

Air Quality

  Air Quality AQ Index Pollutant
Not available.

Snow Depth

Station Depth Elevation

Earthquake Activity

City Distance Mag. Time & Date
Minimum magnitude displayed is 2.5.

Coastal Water Temperatures

Place Temperature

Stations

Nearby Weather Stations

Station Location Temp. Windchill Dew Point Humidity Wind Precip. Elev Updated Type
                   

Watches & Warnings

There are currently no watches in effect.